createdAt,value
2022-10-09T07:10:24.972Z,7.45
2022-10-09T07:12:51.849Z,7.53
2022-10-09T07:15:18.594Z,7.52
2022-10-09T07:17:45.614Z,7.52
2022-10-09T07:20:12.120Z,7.51
2022-10-09T07:22:38.634Z,7.52
2022-10-09T07:25:05.739Z,7.53
2022-10-09T07:27:32.764Z,7.61
2022-10-09T07:30:00.841Z,7.66
2022-10-09T07:32:27.559Z,7.70
2022-10-09T07:34:54.043Z,7.77
2022-10-09T07:37:20.517Z,7.86
2022-10-09T07:39:54.489Z,7.85
2022-10-09T07:42:22.897Z,7.79
2022-10-09T07:44:49.654Z,7.76
2022-10-09T07:47:19.288Z,7.68
2022-10-09T07:49:45.858Z,7.76
2022-10-09T07:52:12.316Z,7.92
2022-10-09T07:54:40.625Z,8.02
2022-10-09T07:57:07.382Z,8.07
2022-10-09T07:59:33.896Z,8.13
2022-10-09T08:02:00.610Z,8.23
2022-10-09T08:04:27.138Z,8.31
2022-10-09T08:06:53.670Z,8.41
2022-10-09T08:09:30.618Z,8.46
2022-10-09T08:11:59.748Z,8.62
2022-10-09T08:14:26.296Z,8.71
2022-10-09T08:16:53.011Z,8.76
2022-10-09T08:19:19.544Z,8.90
2022-10-09T08:21:49.607Z,8.86
2022-10-09T08:24:23.349Z,9.03
2022-10-09T08:26:55.072Z,9.20
2022-10-09T08:29:21.684Z,9.25
2022-10-09T08:31:48.197Z,9.36
2022-10-09T08:34:14.973Z,9.35
2022-10-09T08:36:41.548Z,9.30
2022-10-09T08:39:08.063Z,9.33
2022-10-09T08:41:55.179Z,9.35
2022-10-09T08:44:34.029Z,9.44
2022-10-09T08:47:16.825Z,9.58
2022-10-09T08:50:10.670Z,9.87
2022-10-09T08:52:50.347Z,10.06
2022-10-09T08:55:26.998Z,10.24
2022-10-09T08:57:56.372Z,10.36
2022-10-09T09:00:27.130Z,10.66
2022-10-09T09:03:27.007Z,11.04
2022-10-09T09:06:14.714Z,11.39
2022-10-09T09:09:01.510Z,11.63
2022-10-09T09:11:33.841Z,11.84
2022-10-09T09:14:30.035Z,12.02
2022-10-09T09:17:31.730Z,12.34
2022-10-09T09:20:12.196Z,12.67
2022-10-09T09:22:42.680Z,12.96
2022-10-09T09:25:24.481Z,13.22
2022-10-09T09:27:57.322Z,13.90
2022-10-09T09:30:26.306Z,14.37
2022-10-09T09:32:57.432Z,14.47
2022-10-09T09:35:50.798Z,14.83
2022-10-09T09:38:17.538Z,14.70
2022-10-09T09:40:47.323Z,15.42
2022-10-09T09:43:18.479Z,15.60
2022-10-09T09:45:46.623Z,15.70
2022-10-09T09:48:18.761Z,16.31
2022-10-09T09:50:56.222Z,16.85
2022-10-09T09:53:40.226Z,17.08
2022-10-09T09:56:07.597Z,17.40
2022-10-09T10:01:33.520Z,17.48
2022-10-09T10:06:59.974Z,16.92
2022-10-09T10:09:27.176Z,16.49
2022-10-09T10:11:58.415Z,16.06
2022-10-09T10:14:26.182Z,15.86
2022-10-09T10:16:56.236Z,16.05
2022-10-09T10:19:27.083Z,15.80
2022-10-09T10:22:07.875Z,15.75
2022-10-09T10:24:46.169Z,15.88
2022-10-09T10:27:35.452Z,15.97
2022-10-09T10:30:07.695Z,16.56
2022-10-09T10:32:51.766Z,16.73
2022-10-09T10:35:32.430Z,16.96
2022-10-09T10:38:13.343Z,16.72
2022-10-09T10:40:57.595Z,16.47
2022-10-09T10:43:45.069Z,16.41
2022-10-09T10:46:22.009Z,16.41
2022-10-09T10:48:50.145Z,16.36
2022-10-09T10:51:57.635Z,16.23
2022-10-09T10:54:39.410Z,16.47
2022-10-09T10:57:30.621Z,16.42
2022-10-09T11:00:06.387Z,16.94
2022-10-09T11:03:06.461Z,16.78
2022-10-09T11:05:49.143Z,16.91
2022-10-09T11:08:57.298Z,17.32
2022-10-09T11:11:40.214Z,16.87
2022-10-09T11:14:32.332Z,17.46
2022-10-09T11:17:10.811Z,17.12
2022-10-09T11:19:56.417Z,17.85
2022-10-09T11:22:37.790Z,17.48
2022-10-09T11:25:09.244Z,17.57
2022-10-09T11:27:45.525Z,17.41
2022-10-09T11:30:15.318Z,17.87
2022-10-09T11:32:55.830Z,17.60
2022-10-09T11:35:25.211Z,17.85
2022-10-09T11:38:00.651Z,17.59
2022-10-09T11:40:32.619Z,17.22
2022-10-09T11:43:15.941Z,17.10
2022-10-09T11:45:51.336Z,16.90
2022-10-09T11:48:37.405Z,16.77
2022-10-09T11:51:32.195Z,17.00
2022-10-09T11:54:00.126Z,17.81
2022-10-09T11:56:29.664Z,18.00
2022-10-09T11:59:00.492Z,17.57
2022-10-09T12:01:37.174Z,17.87
2022-10-09T12:04:10.514Z,17.14
2022-10-09T12:06:55.846Z,17.03
2022-10-09T12:09:51.118Z,17.27
2022-10-09T12:12:17.598Z,17.16
2022-10-09T12:14:46.904Z,17.06
2022-10-09T12:17:25.464Z,16.96
2022-10-09T12:20:16.952Z,17.30
2022-10-09T12:23:07.265Z,17.24
2022-10-09T12:25:44.854Z,17.55
2022-10-09T12:28:24.389Z,17.61
2022-10-09T12:30:51.882Z,17.41
2022-10-09T12:33:26.640Z,17.27
2022-10-09T12:36:06.582Z,16.91
2022-10-09T12:38:35.222Z,16.54
2022-10-09T12:41:10.807Z,16.31
2022-10-09T12:43:49.740Z,16.38
2022-10-09T12:46:31.303Z,16.04
2022-10-09T12:49:01.273Z,16.00
2022-10-09T12:51:30.977Z,16.39
2022-10-09T12:53:57.728Z,16.67
2022-10-09T12:56:38.474Z,16.79
2022-10-09T12:59:07.067Z,17.08
2022-10-09T13:01:36.003Z,17.28
2022-10-09T13:04:10.229Z,17.39
2022-10-09T13:06:45.204Z,17.23
2022-10-09T13:09:21.702Z,16.97
2022-10-09T13:11:58.386Z,16.57
2022-10-09T13:14:44.548Z,16.72
2022-10-09T13:17:23.632Z,16.53
2022-10-09T13:19:52.148Z,16.27
2022-10-09T13:22:22.774Z,16.36
2022-10-09T13:24:57.514Z,16.30
2022-10-09T13:27:27.487Z,16.21
2022-10-09T13:29:54.303Z,16.33
2022-10-09T13:32:23.099Z,16.29
2022-10-09T13:34:50.413Z,16.31
2022-10-09T13:37:20.219Z,16.30
2022-10-09T13:39:47.408Z,16.32
2022-10-09T13:42:16.331Z,16.27
2022-10-09T13:44:43.134Z,16.26
2022-10-09T13:47:10.249Z,16.19
2022-10-09T13:49:36.770Z,15.81
2022-10-09T13:52:03.565Z,16.10
2022-10-09T13:54:32.393Z,16.03
2022-10-09T13:56:58.942Z,15.89
2022-10-09T13:59:25.718Z,15.81
2022-10-09T14:01:52.966Z,15.95
2022-10-09T14:04:19.751Z,15.72
2022-10-09T14:06:47.214Z,15.77
2022-10-09T14:09:15.648Z,15.57
2022-10-09T14:11:42.666Z,15.29
2022-10-09T14:14:09.230Z,15.16
2022-10-09T14:16:38.502Z,15.16
2022-10-09T14:19:06.346Z,15.16
2022-10-09T14:21:33.329Z,14.93
2022-10-09T14:24:05.123Z,14.78
2022-10-09T14:26:31.597Z,14.64
2022-10-09T14:29:01.336Z,14.47
2022-10-09T14:31:28.584Z,14.36
2022-10-09T14:33:58.009Z,14.30
2022-10-09T14:36:24.940Z,14.28
2022-10-09T14:38:53.686Z,14.23
2022-10-09T14:41:22.229Z,14.23
2022-10-09T14:43:58.318Z,14.28
2022-10-09T14:46:26.299Z,14.24
2022-10-09T14:48:55.751Z,14.21
2022-10-09T14:51:33.592Z,14.15
2022-10-09T14:54:03.120Z,14.07
2022-10-09T14:56:29.743Z,14.09
2022-10-09T14:58:59.645Z,14.00
2022-10-09T15:01:29.562Z,14.00
2022-10-09T15:03:56.420Z,13.96
2022-10-09T15:06:27.885Z,13.97
2022-10-09T15:09:01.576Z,13.96
2022-10-09T15:11:41.386Z,13.99
2022-10-09T15:14:07.964Z,14.00
2022-10-09T15:16:34.567Z,13.99
2022-10-09T15:19:02.158Z,13.95
2022-10-09T15:21:33.802Z,13.98
2022-10-09T15:24:02.594Z,13.91
2022-10-09T15:26:34.619Z,13.90
2022-10-09T15:29:04.554Z,13.80
2022-10-09T15:31:33.881Z,13.79
2022-10-09T15:34:03.895Z,13.78
2022-10-09T15:36:34.259Z,13.73
2022-10-09T15:39:05.672Z,13.65
2022-10-09T15:41:42.100Z,13.58
2022-10-09T15:44:18.593Z,13.48
2022-10-09T15:49:38.463Z,13.38
2022-10-09T15:52:04.978Z,13.34
2022-10-09T15:54:31.780Z,13.33
2022-10-09T15:56:58.330Z,13.28
2022-10-09T15:59:25.779Z,13.22
2022-10-09T16:01:52.537Z,13.21
2022-10-09T16:04:20.812Z,13.19
2022-10-09T16:06:47.446Z,13.17
2022-10-09T16:09:14.006Z,13.16
2022-10-09T16:11:47.130Z,13.12
2022-10-09T16:14:13.699Z,13.09
2022-10-09T16:16:40.184Z,13.04
2022-10-09T16:19:07.022Z,12.98
2022-10-09T16:21:33.549Z,12.95
2022-10-09T16:24:00.558Z,12.89
2022-10-09T16:26:30.807Z,12.81
2022-10-09T16:28:58.961Z,12.77
2022-10-09T16:31:31.100Z,12.72
2022-10-09T16:33:58.828Z,12.69
2022-10-09T16:36:31.194Z,12.65
2022-10-09T16:38:58.341Z,12.63
2022-10-09T16:41:25.829Z,12.58
2022-10-09T16:43:55.228Z,12.53
2022-10-09T16:46:23.364Z,12.48
2022-10-09T16:48:56.393Z,12.43
2022-10-09T16:51:29.382Z,12.38
2022-10-09T16:54:00.567Z,12.32
2022-10-09T16:56:30.084Z,12.27
2022-10-09T16:58:59.443Z,12.21
2022-10-09T17:01:27.196Z,12.16
2022-10-09T17:09:17.768Z,12.00
2022-10-09T17:11:49.538Z,11.97
2022-10-09T17:14:16.120Z,11.92
2022-10-09T17:16:44.792Z,11.91
2022-10-09T17:19:11.755Z,11.87
2022-10-09T17:21:38.435Z,11.83
2022-10-09T17:24:07.720Z,11.79
2022-10-09T17:26:35.009Z,11.78
2022-10-09T17:29:02.278Z,11.77
2022-10-09T17:31:29.558Z,11.75
2022-10-09T17:33:59.826Z,11.70
2022-10-09T17:36:28.851Z,11.67
2022-10-09T17:38:55.627Z,11.64
2022-10-09T17:41:24.313Z,11.61
2022-10-09T17:43:52.684Z,11.58
2022-10-09T17:46:19.927Z,11.57
2022-10-09T17:48:53.340Z,11.55
2022-10-09T17:51:24.711Z,11.52
2022-10-09T17:53:54.444Z,11.52
2022-10-09T17:56:21.040Z,11.51
2022-10-09T17:58:49.925Z,11.50
2022-10-09T18:01:17.593Z,11.50
2022-10-09T18:03:44.777Z,11.50
2022-10-09T18:06:18.957Z,11.48
2022-10-09T18:08:46.331Z,11.46
2022-10-09T18:11:16.633Z,11.45
2022-10-09T18:13:44.537Z,11.45
2022-10-09T18:16:20.506Z,11.43
2022-10-09T18:18:51.254Z,11.43
2022-10-09T18:21:17.915Z,11.43
2022-10-09T18:23:46.077Z,11.43
2022-10-09T18:26:15.626Z,11.43
2022-10-09T18:28:44.834Z,11.46
2022-10-09T18:31:18.360Z,11.44
2022-10-09T18:33:44.935Z,11.44
2022-10-09T18:36:21.277Z,11.42
2022-10-09T18:38:50.227Z,11.40
2022-10-09T18:41:17.983Z,11.43
2022-10-09T18:43:45.202Z,11.40
2022-10-09T18:46:11.880Z,11.38
2022-10-09T18:48:40.220Z,11.37
2022-10-09T18:51:16.583Z,11.33
2022-10-09T18:53:51.701Z,11.29
2022-10-09T18:56:19.862Z,11.27
2022-10-09T18:58:48.383Z,11.25
2022-10-09T19:01:14.979Z,11.23
2022-10-09T19:03:45.971Z,11.19
2022-10-09T19:06:18.834Z,11.16
2022-10-09T19:08:45.899Z,11.16
2022-10-09T19:11:14.519Z,11.15
2022-10-09T19:13:42.641Z,11.17
2022-10-09T19:16:15.714Z,11.18
2022-10-09T19:18:42.208Z,11.16
2022-10-09T19:21:16.818Z,11.13
2022-10-09T19:23:48.490Z,11.13
2022-10-09T19:26:15.268Z,11.12
2022-10-09T19:28:41.847Z,11.09
2022-10-09T19:31:11.801Z,11.07
2022-10-09T19:33:41.239Z,11.08
2022-10-09T19:36:11.051Z,11.08
2022-10-09T19:38:39.275Z,11.10
2022-10-09T19:41:08.816Z,11.14
2022-10-09T19:43:35.765Z,11.16
2022-10-09T19:46:05.195Z,11.17
2022-10-09T19:48:31.997Z,11.23
2022-10-09T19:50:59.365Z,11.25
2022-10-09T19:53:26.158Z,11.26
2022-10-09T19:55:52.609Z,11.30
2022-10-09T19:58:19.227Z,11.33
2022-10-09T20:00:48.592Z,11.35
2022-10-09T20:03:17.103Z,11.36
2022-10-09T20:05:43.628Z,11.41
2022-10-09T20:08:17.371Z,11.45
2022-10-09T20:10:45.775Z,11.48
2022-10-09T20:13:14.118Z,11.57
2022-10-09T20:15:48.106Z,11.60
2022-10-09T20:18:14.571Z,11.60
2022-10-09T20:20:46.989Z,11.59
2022-10-09T20:23:13.685Z,11.59
2022-10-09T20:25:43.613Z,11.60
2022-10-09T20:28:10.175Z,11.62
2022-10-09T20:30:36.691Z,11.67
2022-10-09T20:33:03.642Z,11.69
2022-10-09T20:35:30.118Z,11.75
2022-10-09T20:37:59.546Z,11.77
2022-10-09T20:40:26.178Z,11.80
2022-10-09T20:42:53.310Z,11.80
2022-10-09T20:45:20.037Z,11.80
2022-10-09T20:47:46.518Z,11.79
2022-10-09T20:50:13.092Z,11.77
2022-10-09T20:52:39.742Z,11.83
2022-10-09T20:55:08.687Z,11.79
2022-10-09T20:57:35.256Z,11.78
2022-10-09T21:00:02.009Z,11.76
2022-10-09T21:02:28.541Z,11.72
2022-10-09T21:04:55.027Z,11.71
2022-10-09T21:07:21.697Z,11.68
2022-10-09T21:09:48.185Z,11.67
2022-10-09T21:12:14.986Z,11.65
2022-10-09T21:14:41.602Z,11.63
2022-10-09T21:17:08.168Z,11.62
2022-10-09T21:19:34.666Z,11.58
2022-10-09T21:22:01.421Z,11.57
2022-10-09T21:24:28.114Z,11.57
2022-10-09T21:26:56.945Z,11.56
2022-10-09T21:29:25.295Z,11.56
2022-10-09T21:31:51.752Z,11.51
2022-10-09T21:34:18.263Z,11.50
2022-10-09T21:37:16.342Z,11.51
2022-10-09T21:39:43.021Z,11.54
2022-10-09T21:42:11.293Z,11.60
2022-10-09T21:44:39.772Z,11.64
2022-10-09T21:47:06.389Z,11.66
2022-10-09T21:49:32.993Z,11.72
2022-10-09T21:51:59.576Z,11.75
2022-10-09T21:54:26.316Z,11.74
2022-10-09T21:56:54.737Z,11.78
2022-10-09T21:59:21.464Z,11.80
2022-10-09T22:01:48.027Z,11.79
2022-10-09T22:04:14.706Z,11.78
2022-10-09T22:06:41.242Z,11.77
2022-10-09T22:09:07.784Z,11.76
2022-10-09T22:11:39.468Z,11.75
2022-10-09T22:14:07.287Z,11.73
2022-10-09T22:16:33.812Z,11.74
2022-10-09T22:19:03.363Z,11.70
2022-10-09T22:21:29.921Z,11.69
2022-10-09T22:23:56.715Z,11.65
2022-10-09T22:26:25.406Z,11.63
2022-10-09T22:28:51.943Z,11.63
2022-10-09T22:31:24.314Z,11.64
2022-10-09T22:33:56.180Z,11.63
2022-10-09T22:36:25.043Z,11.64
2022-10-09T22:39:03.506Z,11.60
2022-10-09T22:41:34.264Z,11.60
2022-10-09T22:44:01.087Z,11.61
2022-10-09T22:46:42.243Z,11.59
2022-10-09T22:49:11.761Z,11.56
2022-10-09T22:51:38.585Z,11.55
2022-10-09T22:54:11.964Z,11.56
2022-10-09T22:56:42.033Z,11.55
2022-10-09T22:59:09.561Z,11.57
2022-10-09T23:02:06.333Z,11.56
2022-10-09T23:04:32.777Z,11.56
2022-10-09T23:06:59.623Z,11.54
2022-10-09T23:09:33.524Z,11.55
2022-10-09T23:12:00.327Z,11.58
2022-10-09T23:14:26.992Z,11.58
2022-10-09T23:16:55.247Z,11.61
2022-10-09T23:19:21.832Z,11.61
2022-10-09T23:21:48.655Z,11.62
2022-10-09T23:24:17.792Z,11.61
2022-10-09T23:26:46.293Z,11.59
2022-10-09T23:29:20.174Z,11.59
2022-10-09T23:31:47.243Z,11.56
2022-10-09T23:34:14.097Z,11.55
2022-10-09T23:36:44.358Z,11.55
2022-10-09T23:39:11.001Z,11.55
2022-10-09T23:41:38.056Z,11.53
2022-10-09T23:44:06.452Z,11.54
2022-10-09T23:46:37.773Z,11.55
2022-10-09T23:49:04.884Z,11.55
2022-10-09T23:51:33.455Z,11.52
2022-10-09T23:53:59.975Z,11.53
2022-10-09T23:56:32.578Z,11.56
2022-10-09T23:59:01.026Z,11.56
